METAR rapporter

 

EKAH - Tirstrup (civ/Mi, Denmark
Afstand fra stationen: SSV 25km
Opdateret: 11/07/2020 09:50
Delvist skyet
Delvist skyet
 Vind fra V
Vind: V 35 km/h
Temperatur: 15°C
Dugpunkt: 8°C
Fugtighed: 63%
Barometer: 1016 hPa
Skydække: Delvist skyet
Sigtbarhed: 10 km
Skyhøjde: Delvist skyet 914 m
2020/07/11 07:50 EKAH 110750Z AUTO 28019KT 9999NDV SCT030/// 15/08 Q1016
EKYT - Alborg, Denmark
Afstand fra stationen: NV 91km
Opdateret: 11/07/2020 09:50
Mest skyet
Mest skyet
 Vind fra V
Vind: V 28 km/h, Vindstød: 50 km/h
Temperatur: 15°C
Dugpunkt: 9°C
Fugtighed: 68%
Barometer: 1014 hPa
Skydække: Mest skyet
Sigtbarhed: 10 km
Skyhøjde: Få skyer 762 m
Delvist skyet 945 m
Mest skyet 1524 m
2020/07/11 07:50 EKYT 110750Z AUTO 28015G27KT 9999 FEW025/// SCT031/// BKN050/// 15/09 Q1014
EKKA - Karup (dan-Afb), Denmark
Afstand fra stationen: V 107km
Opdateret: 11/07/2020 09:50
Let regn, Regnbyger, Delvist skyet
Let regn, Regnbyger, Delvist skyet
 Vind fra V
Vind: V 33 km/h
Temperatur: 13°C
Dugpunkt: 9°C
Fugtighed: 77%
Barometer: 1016 hPa
Oversigt: Let regn, Regnbyger
Skydække: Delvist skyet
Sigtbarhed: 10 km
Skyhøjde: Delvist skyet 518 m
Delvist skyet 762 m
2020/07/11 07:50 EKKA 110750Z 27018KT 9999 -SHRA SCT017CB SCT025 13/09 Q1016
 
EKOD - Odense/Beldringe, Denmark
Afstand fra stationen: SSV 116km
Opdateret: 11/07/2020 09:50
Delvist skyet
Delvist skyet
 Vind fra V
Vind: V 22 km/h, Vindstød: 41 km/h
Temperatur: 15°C
Dugpunkt: 10°C
Fugtighed: 72%
Barometer: 1018 hPa
Skydække: Delvist skyet
Sigtbarhed: 10 km
Skyhøjde: Få skyer 945 m
Delvist skyet 1128 m
2020/07/11 07:50 EKOD 110750Z 26012G22KT 180V310 9999 FEW031 SCT037 15/10 Q1018
EKBI - Billund Airport, Denmark
Afstand fra stationen: SV 134km
Opdateret: 11/07/2020 09:50
Delvist skyet
Delvist skyet
 Vind fra V
Vind: V 30 km/h
Temperatur: 14°C
Dugpunkt: 9°C
Fugtighed: 72%
Barometer: 1018 hPa
Skydække: Delvist skyet
Sigtbarhed: 10 km
Skyhøjde: Delvist skyet 732 m
2020/07/11 07:50 EKBI 110750Z AUTO 26016KT 9999 SCT024/// 14/09 Q1018
EKCH - Copenhagen/Kastr, Denmark
Afstand fra stationen: SØ 148km
Opdateret: 11/07/2020 09:50
Delvist skyet
Delvist skyet
 Vind fra V
Vind: V 28 km/h
Temperatur: 16°C
Dugpunkt: 8°C
Fugtighed: 59%
Barometer: 1016 hPa
Skydække: Delvist skyet
Sigtbarhed: 10 km
Skyhøjde: Delvist skyet 945 m
2020/07/11 07:50 EKCH 110750Z AUTO 28015KT 250V310 9999 SCT031/// 16/08 Q1016 NOSIG